Carnesville, Georgia
Current Conditions -  °F | °C
As of 8:35 PM on Thursday 27 Nov 2014 (Local Time) from KTOC Reporting Station
Clear Clear  
Wind Chill: 35°   Ceiling: Unl
Heat Index: 38°   Visibility: 10mi
Dew Point: 25°   Wind: 5mph
Humidity: 58%   Direction: 290°WNW
Pressure: 30.3"   Gusts: NA
Location:  34.37°N, 83.24°W
Report Text: KTOC 280135Z AUTO 29004KT 10SM CLR 04/M04 A3030 RMK AO2 T00351040
Loading
Personal Weather Stations






























Interactive Weather Map New forecast layout! Learn more

10-Day Weather Forecast

Advertisements
Track Severe Weather on mobile